Time;durP1;ratioP1;P1;durP2;ratioP2;P2;SDS_P1;SDS_P2;PMS_P1;PMS_P2;Temp;Humidity;BMP_temperature;BMP_pressure;BME280_temperature;BME280_humidity;BME280_pressure;Samples;Min_cycle;Max_cycle;Signal;HPM_P1;HPM_P2
2022/03/26 00:02:26;;;;;;;;;59.00;45.00;;;;;12.73;43.08;102481.56;5031866;28;45587;-68
2022/03/26 00:04:51;;;;;;;;;57.50;41.75;;;;;12.68;43.24;102489.59;5032518;28;45465;-68
2022/03/26 00:07:17;;;;;;;;;59.00;43.00;;;;;12.66;43.50;102486.13;5032186;28;45467;-68
2022/03/26 00:09:42;;;;;;;;;55.25;42.75;;;;;12.59;43.70;102487.19;5018118;28;46260;-68
2022/03/26 00:12:08;;;;;;;;;57.67;44.67;;;;;12.55;43.87;102488.16;5021247;28;45386;-69
2022/03/26 00:14:34;;;;;;;;;59.00;41.00;;;;;12.52;43.04;102483.81;5032200;28;45415;-69
2022/03/26 00:17:00;;;;;;;;;55.25;41.00;;;;;12.50;43.79;102480.34;5031190;28;45707;-69
2022/03/26 00:19:26;;;;;;;;;58.00;44.00;;;;;12.48;43.85;102481.31;5031030;28;46078;-69
2022/03/26 00:21:51;;;;;;;;;56.25;41.50;;;;;12.46;44.23;102478.69;5027361;28;45452;-69
2022/03/26 00:24:17;;;;;;;;;58.00;41.00;;;;;12.41;43.62;102472.66;5028667;28;45452;-69
2022/03/26 00:26:42;;;;;;;;;59.00;43.50;;;;;12.38;43.58;102471.88;5031059;28;45435;-69
2022/03/26 00:29:08;;;;;;;;;59.75;45.50;;;;;12.36;44.02;102476.28;5031949;28;46302;-69
2022/03/26 00:31:34;;;;;;;;;55.75;42.50;;;;;12.33;44.13;102485.16;5031217;28;45728;-69
2022/03/26 00:34:00;;;;;;;;;57.50;41.50;;;;;12.30;44.24;102479.94;5032336;28;45508;-69
2022/03/26 00:36:25;;;;;;;;;58.25;43.00;;;;;12.27;44.03;102474.75;5021850;28;45487;-69
2022/03/26 00:38:50;;;;;;;;;60.25;42.75;;;;;12.23;44.27;102473.94;5024710;28;45820;-69
2022/03/26 00:41:16;;;;;;;;;57.50;44.00;;;;;12.21;44.51;102475.72;5028795;28;45689;-69
2022/03/26 00:43:41;;;;;;;;;59.50;44.25;;;;;12.18;44.85;102478.44;5027225;28;45377;-68
2022/03/26 00:46:07;;;;;;;;;55.00;42.75;;;;;12.13;44.69;102472.41;5034450;28;45290;-68
2022/03/26 00:48:32;;;;;;;;;60.75;44.50;;;;;12.12;44.44;102473.31;5019824;28;46257;-68
2022/03/26 00:50:58;;;;;;;;;62.50;45.00;;;;;12.10;44.81;102472.44;5035463;28;45817;-68
2022/03/26 00:53:23;;;;;;;;;67.50;47.00;;;;;12.06;44.90;102473.44;5032686;28;45265;-68
2022/03/26 00:55:49;;;;;;;;;60.50;43.75;;;;;12.03;44.48;102473.50;5033737;28;45469;-68
2022/03/26 00:58:14;;;;;;;;;57.25;42.50;;;;;11.99;45.42;102471.81;5034163;28;46207;-68
2022/03/26 01:00:39;;;;;;;;;60.75;42.75;;;;;11.94;44.89;102469.28;5024805;28;45460;-68
2022/03/26 01:03:08;;;;;;;;;54.50;41.00;;;;;11.90;45.50;102470.28;5035139;28;45321;-68
2022/03/26 01:05:34;;;;;;;;;63.00;45.50;;;;;11.89;45.04;102465.00;5027054;28;45614;-68
2022/03/26 01:07:59;;;;;;;;;53.75;40.25;;;;;11.85;45.41;102464.22;5030646;28;45464;-68
2022/03/26 01:10:26;;;;;;;;;58.00;45.25;;;;;11.82;45.68;102466.03;5027914;28;45433;-68
2022/03/26 01:12:52;;;;;;;;;61.25;45.25;;;;;11.79;45.40;102466.06;5022768;28;45318;-67
2022/03/26 01:15:17;;;;;;;;;62.50;44.00;;;;;11.75;45.86;102460.88;5033934;28;45442;-67
2022/03/26 01:17:43;;;;;;;;;54.50;40.25;;;;;11.71;46.04;102467.09;5025551;28;46137;-67
2022/03/26 01:20:08;;;;;;;;;62.25;43.25;;;;;11.68;45.26;102467.13;5029861;28;45385;-68
2022/03/26 01:22:34;;;;;;;;;59.50;44.25;;;;;11.65;46.52;102469.00;5022001;28;45468;-67
2022/03/26 01:24:59;;;;;;;;;64.00;45.00;;;;;11.61;46.59;102462.03;5021170;28;45390;-67
2022/03/26 01:27:25;;;;;;;;;55.75;44.50;;;;;11.57;46.24;102463.84;5033626;28;46186;-67
2022/03/26 01:29:50;;;;;;;;;59.00;43.50;;;;;11.55;46.30;102467.44;5029379;28;47018;-67
2022/03/26 01:32:15;;;;;;;;;62.00;43.33;;;;;11.52;46.23;102459.59;5021520;28;47167;-68
2022/03/26 01:34:41;;;;;;;;;58.25;43.75;;;;;11.47;46.68;102447.38;5019792;28;45456;-67
2022/03/26 01:37:07;;;;;;;;;51.50;38.25;;;;;11.45;46.14;102451.81;5030637;28;45374;-67
2022/03/26 01:39:32;;;;;;;;;55.75;42.25;;;;;11.42;46.81;102449.22;5031431;28;45406;-68
2022/03/26 01:42:05;;;;;;;;;60.00;42.25;;;;;11.41;46.88;102451.88;5022966;28;45548;-67
2022/03/26 01:44:31;;;;;;;;;58.25;40.00;;;;;11.36;46.50;102445.84;5033244;28;45671;-68
2022/03/26 01:46:58;;;;;;;;;63.25;44.00;;;;;11.35;46.38;102454.66;5027352;28;45467;-68
2022/03/26 01:49:24;;;;;;;;;56.00;43.75;;;;;11.32;47.03;102452.06;5029670;28;45410;-67
2022/03/26 01:51:49;;;;;;;;;64.25;41.50;;;;;11.29;47.26;102445.09;5030422;28;45462;-67
2022/03/26 01:54:16;;;;;;;;;58.75;45.00;;;;;11.27;47.50;102446.88;5019501;28;45575;-67
2022/03/26 01:56:42;;;;;;;;;57.00;42.75;;;;;11.26;46.69;102439.00;5028204;28;45259;-67
2022/03/26 01:59:08;;;;;;;;;65.25;45.00;;;;;11.23;47.85;102447.84;5026060;28;45985;-67
2022/03/26 02:01:34;;;;;;;;;54.75;38.25;;;;;11.23;47.15;102442.59;5020925;28;45456;-68
2022/03/26 02:04:01;;;;;;;;;62.00;43.25;;;;;11.21;47.09;102444.34;5018027;28;45344;-67
2022/03/26 02:06:31;;;;;;;;;54.00;41.75;;;;;11.19;47.58;102444.41;5031714;28;46362;-68
2022/03/26 02:08:57;;;;;;;;;60.75;42.25;;;;;11.18;47.55;102431.28;5019407;28;46040;-68
2022/03/26 02:11:23;;;;;;;;;56.75;43.00;;;;;11.16;47.63;102430.41;5025598;28;45507;-68
2022/03/26 02:13:49;;;;;;;;;61.00;45.75;;;;;11.16;47.78;102440.94;5022801;28;45711;-68
2022/03/26 02:16:15;;;;;;;;;59.50;44.00;;;;;11.15;47.50;102444.47;5018236;28;46402;-68
2022/03/26 02:18:41;;;;;;;;;60.50;41.00;;;;;11.12;47.54;102434.88;5029242;28;45421;-68
2022/03/26 02:21:06;;;;;;;;;61.50;45.50;;;;;11.09;47.44;102434.06;5029962;28;45981;-68
2022/03/26 02:23:31;;;;;;;;;58.25;42.75;;;;;11.08;47.87;102434.97;5026149;28;45392;-68
2022/03/26 02:25:57;;;;;;;;;57.00;41.25;;;;;11.05;47.65;102432.38;5028442;28;46096;-68
2022/03/26 02:28:22;;;;;;;;;66.50;44.50;;;;;11.02;47.72;102433.31;5026751;28;45468;-68
2022/03/26 02:30:48;;;;;;;;;61.25;44.50;;;;;11.00;47.90;102432.44;5027713;28;45484;-68
2022/03/26 02:33:13;;;;;;;;;53.75;41.75;;;;;10.99;48.07;102428.09;5030929;28;45793;-68
2022/03/26 02:35:38;;;;;;;;;58.00;43.00;;;;;10.96;48.36;102426.41;5027579;28;49793;-68
2022/03/26 02:38:04;;;;;;;;;53.00;41.50;;;;;10.97;48.04;102427.25;5028196;28;45401;-68
2022/03/26 02:40:29;;;;;;;;;57.75;42.00;;;;;10.95;47.95;102422.00;5024037;28;45592;-68
2022/03/26 02:42:54;;;;;;;;;41.50;37.75;;;;;10.94;48.32;102425.53;5026987;28;45503;-68
2022/03/26 02:45:20;;;;;;;;;60.25;41.50;;;;;10.92;48.25;102427.34;5021868;28;46983;-68
2022/03/26 02:47:48;;;;;;;;;53.75;40.75;;;;;10.91;48.19;102427.34;5021174;28;45488;-68
2022/03/26 02:50:13;;;;;;;;;57.25;41.00;;;;;10.90;48.13;102412.47;5025277;28;45372;-68
2022/03/26 02:52:39;;;;;;;;;49.50;39.00;;;;;10.87;47.84;102421.28;5024016;28;45213;-68
2022/03/26 02:55:07;;;;;;;;;53.00;40.33;;;;;10.87;48.39;102417.81;5035443;28;45488;-68
2022/03/26 02:57:32;;;;;;;;;57.75;43.25;;;;;10.86;48.23;102418.69;5020304;28;45610;-68
2022/03/26 02:59:57;;;;;;;;;58.00;44.67;;;;;10.86;48.55;102426.59;5031684;28;48901;-68
2022/03/26 03:02:22;;;;;;;;;57.00;42.75;;;;;10.85;48.21;102425.69;5031149;28;45467;-68
2022/03/26 03:04:48;;;;;;;;;50.00;37.67;;;;;10.86;47.70;102423.97;5031479;28;57893;-68
2022/03/26 03:07:13;;;;;;;;;57.67;41.33;;;;;10.84;48.32;102428.34;5020523;28;45462;-68
2022/03/26 03:09:39;;;;;;;;;53.33;41.00;;;;;10.83;48.50;102421.38;5032088;28;55534;-68
2022/03/26 03:12:04;;;;;;;;;52.75;40.25;;;;;10.82;48.62;102417.00;5030179;28;45366;-68
2022/03/26 03:14:30;;;;;;;;;52.00;41.50;;;;;10.81;48.78;102423.16;5030376;28;45960;-68
2022/03/26 03:16:55;;;;;;;;;53.75;40.00;;;;;10.79;48.82;102417.91;5031598;28;45579;-68
2022/03/26 03:19:21;;;;;;;;;58.00;39.00;;;;;10.80;48.67;102430.16;5031292;28;53753;-68
2022/03/26 03:21:46;;;;;;;;;55.33;41.00;;;;;10.79;48.79;102423.16;5030349;28;48922;-68
2022/03/26 03:24:11;;;;;;;;;56.67;45.33;;;;;10.78;48.69;102425.84;5023412;28;46252;-68
2022/03/26 03:26:37;;;;;;;;;55.75;41.25;;;;;10.76;48.66;102423.25;5024261;28;45421;-68
2022/03/26 03:29:02;;;;;;;;;47.33;38.00;;;;;10.74;48.22;102424.16;5031040;28;52210;-68
2022/03/26 03:31:28;;;;;;;;;57.75;44.50;;;;;10.71;48.99;102428.56;5029427;28;45509;-68
2022/03/26 03:33:53;;;;;;;;;53.50;38.00;;;;;10.69;48.78;102427.72;5029468;28;46971;-68
2022/03/26 03:36:19;;;;;;;;;57.50;42.25;;;;;10.68;48.55;102428.63;5034525;28;45452;-68
2022/03/26 03:38:45;;;;;;;;;52.50;39.00;;;;;10.67;48.51;102426.88;5023748;28;45337;-68
2022/03/26 03:41:10;;;;;;;;;48.50;38.25;;;;;10.65;48.76;102427.81;5023786;28;45475;-68
2022/03/26 03:43:36;;;;;;;;;55.00;40.67;;;;;10.64;48.95;102420.78;5027666;28;53819;-68
2022/03/26 03:46:01;;;;;;;;;58.50;41.25;;;;;10.62;49.13;102427.84;5031485;28;45456;-68
2022/03/26 03:48:27;;;;;;;;;51.25;38.25;;;;;10.62;49.01;102427.84;5021994;28;45632;-68
2022/03/26 03:50:52;;;;;;;;;55.00;41.50;;;;;10.59;49.17;102426.13;5021935;28;45740;-68
2022/03/26 03:53:18;;;;;;;;;52.50;41.00;;;;;10.58;49.21;102427.03;5028050;28;46136;-68
2022/03/26 03:55:43;;;;;;;;;55.50;40.25;;;;;10.57;48.41;102421.78;5030301;28;45555;-68
2022/03/26 03:58:09;;;;;;;;;52.25;39.00;;;;;10.55;48.94;102440.22;5026431;28;45532;-68
2022/03/26 04:00:34;;;;;;;;;41.75;35.50;;;;;10.53;49.03;102430.63;5018752;28;45736;-68
2022/03/26 04:03:00;;;;;;;;;56.75;39.00;;;;;10.50;49.36;102430.69;5013545;28;46249;-68
2022/03/26 04:05:26;;;;;;;;;53.75;42.00;;;;;10.50;49.08;102438.56;5024567;28;45522;-67
2022/03/26 04:07:51;;;;;;;;;55.25;41.00;;;;;10.48;49.17;102441.19;5023005;28;45409;-68
2022/03/26 04:10:17;;;;;;;;;54.25;41.50;;;;;10.48;49.54;102433.31;5028833;28;45638;-68
2022/03/26 04:12:44;;;;;;;;;46.00;34.50;;;;;10.48;49.00;102440.34;5001816;28;46257;-68
2022/03/26 04:15:12;;;;;;;;;54.50;40.00;;;;;10.45;49.22;102442.13;5030294;28;46063;-68
2022/03/26 04:17:37;;;;;;;;;50.00;40.75;;;;;10.44;49.53;102434.28;5027958;28;45491;-68
2022/03/26 04:20:06;;;;;;;;;50.50;40.25;;;;;10.43;49.34;102429.88;5025339;28;45774;-68
2022/03/26 04:22:31;;;;;;;;;54.25;39.75;;;;;10.40;49.12;102438.69;5022508;28;46028;-68
2022/03/26 04:24:57;;;;;;;;;52.00;39.75;;;;;10.38;49.46;102439.59;5019196;28;49580;-68
2022/03/26 04:27:22;;;;;;;;;51.00;37.75;;;;;10.37;49.41;102437.88;5021709;28;45712;-68
2022/03/26 04:29:48;;;;;;;;;51.50;38.00;;;;;10.34;49.38;102438.81;5029162;28;45528;-68
2022/03/26 04:32:13;;;;;;;;;54.75;42.25;;;;;10.32;49.26;102437.94;5023252;28;46104;-68
2022/03/26 04:34:39;;;;;;;;;46.33;35.67;;;;;10.32;49.64;102448.44;5029658;28;45320;-68
2022/03/26 04:37:05;;;;;;;;;54.50;42.00;;;;;10.31;49.47;102448.47;5028023;28;45424;-68
2022/03/26 04:39:31;;;;;;;;;47.50;38.75;;;;;10.31;49.44;102448.47;5033714;28;45405;-68
2022/03/26 04:41:56;;;;;;;;;61.50;40.50;;;;;10.29;50.04;102445.88;5026223;28;45710;-67
2022/03/26 04:44:22;;;;;;;;;55.00;39.00;;;;;10.26;49.74;102443.28;5032112;28;45481;-68
2022/03/26 04:46:47;;;;;;;;;50.00;37.75;;;;;10.24;49.94;102452.97;5028208;28;46680;-68
2022/03/26 04:49:12;;;;;;;;;55.00;38.25;;;;;10.22;50.19;102445.94;5019296;28;47707;-68
2022/03/26 04:51:38;;;;;;;;;48.25;32.25;;;;;10.18;50.14;102443.38;5018429;28;53708;-68
2022/03/26 04:54:04;;;;;;;;;47.67;37.33;;;;;10.17;49.30;102443.38;5031227;28;46611;-68
2022/03/26 04:56:29;;;;;;;;;53.50;35.75;;;;;10.14;50.45;102443.44;5028830;28;45260;-67
2022/03/26 04:58:55;;;;;;;;;52.25;39.75;;;;;10.12;50.56;102437.31;5028493;28;45429;-68
2022/03/26 05:01:23;;;;;;;;;55.25;41.50;;;;;10.11;50.24;102446.09;5029670;28;45982;-68
2022/03/26 05:03:49;;;;;;;;;45.75;36.50;;;;;10.08;50.38;102443.53;5033087;28;45590;-68
2022/03/26 05:06:15;;;;;;;;;50.25;37.00;;;;;10.06;50.43;102443.53;5027178;28;45510;-68
2022/03/26 05:08:40;;;;;;;;;52.00;39.00;;;;;10.06;50.78;102448.78;5032452;28;45653;-68
2022/03/26 05:11:05;;;;;;;;;50.67;40.00;;;;;10.05;50.53;102451.44;5031878;28;56704;-68
2022/03/26 05:13:31;;;;;;;;;56.25;39.00;;;;;10.01;50.95;102455.84;5027394;28;46693;-67
2022/03/26 05:15:57;;;;;;;;;49.00;36.75;;;;;9.99;50.93;102455.00;5029789;28;45432;-68
2022/03/26 05:18:22;;;;;;;;;51.75;38.75;;;;;9.98;51.00;102455.03;5017680;28;45326;-68
2022/03/26 05:20:47;;;;;;;;;55.67;41.00;;;;;9.96;50.92;102457.66;5025224;28;60165;-69
2022/03/26 05:23:12;;;;;;;;;53.75;39.50;;;;;9.93;51.49;102457.72;5029736;28;45392;-67
2022/03/26 05:25:38;;;;;;;;;60.75;43.75;;;;;9.90;51.53;102455.97;5026356;28;45834;-68
2022/03/26 05:28:03;;;;;;;;;56.25;37.00;;;;;9.87;51.39;102452.56;5029225;28;45438;-68
2022/03/26 05:30:29;;;;;;;;;56.75;39.00;;;;;9.86;52.04;102453.41;5032075;28;46009;-67
2022/03/26 05:32:55;;;;;;;;;56.33;41.67;;;;;9.86;52.16;102463.91;5034784;28;50290;-68
2022/03/26 05:35:21;;;;;;;;;55.25;42.25;;;;;9.83;52.16;102466.59;5021259;28;45366;-68
2022/03/26 05:37:47;;;;;;;;;49.50;37.25;;;;;9.82;52.17;102464.88;5020106;28;45520;-68
2022/03/26 05:40:16;;;;;;;;;58.50;43.00;;;;;9.80;51.83;102477.13;5018620;28;46107;-69
2022/03/26 05:42:42;;;;;;;;;60.00;40.75;;;;;9.79;52.20;102475.41;5026146;28;45835;-67
2022/03/26 05:45:08;;;;;;;;;56.75;40.50;;;;;9.76;51.52;102476.31;5016278;28;45490;-68
2022/03/26 05:47:35;;;;;;;;;55.00;37.25;;;;;9.76;52.15;102476.31;5033631;28;46166;-67
2022/03/26 05:50:01;;;;;;;;;51.00;38.50;;;;;9.77;51.81;102478.03;5025428;28;46454;-68
2022/03/26 05:52:27;;;;;;;;;58.50;41.50;;;;;9.77;51.91;102475.41;5033329;28;45527;-68
2022/03/26 05:54:52;;;;;;;;;59.00;41.75;;;;;9.80;52.29;102482.38;5033274;28;45204;-68
2022/03/26 05:57:21;;;;;;;;;56.50;42.50;;;;;9.82;52.36;102478.00;5021294;28;45455;-68
2022/03/26 05:59:46;;;;;;;;;56.25;40.00;;;;;9.83;51.88;102477.97;5019099;28;46270;-68
2022/03/26 06:02:13;;;;;;;;;55.00;42.00;;;;;9.85;52.60;102486.69;5030469;28;45480;-66
2022/03/26 06:04:39;;;;;;;;;43.75;36.50;;;;;9.88;52.44;102483.16;5028209;28;45409;-66
2022/03/26 06:07:05;;;;;;;;;59.25;39.25;;;;;9.91;52.20;102486.59;5019339;28;45572;-68
2022/03/26 06:09:30;;;;;;;;;50.50;38.00;;;;;9.93;52.24;102476.09;5032264;28;45714;-70
2022/03/26 06:11:56;;;;;;;;;51.75;39.50;;;;;9.97;52.33;102482.16;5033304;28;45246;-68
2022/03/26 06:14:22;;;;;;;;;48.75;39.50;;;;;10.01;51.97;102482.13;5032235;28;45462;-66
2022/03/26 06:16:47;;;;;;;;;53.25;38.00;;;;;10.05;52.21;102490.84;5033823;28;45510;-66
2022/03/26 06:19:13;;;;;;;;;47.75;38.75;;;;;10.08;51.25;102496.06;5035266;28;46305;-66
2022/03/26 06:21:39;;;;;;;;;52.25;39.00;;;;;10.09;51.26;102493.41;5025957;28;45890;-66
2022/03/26 06:24:05;;;;;;;;;52.75;41.75;;;;;10.15;51.78;102497.72;5033793;28;45342;-67
2022/03/26 06:26:30;;;;;;;;;60.25;40.25;;;;;10.18;51.78;102498.53;5024301;28;45595;-67
2022/03/26 06:28:56;;;;;;;;;56.50;43.00;;;;;10.24;51.89;102509.91;5028825;28;46299;-67
2022/03/26 06:31:22;;;;;;;;;52.00;41.50;;;;;10.31;51.66;102511.53;5024635;28;45528;-66
2022/03/26 06:33:47;;;;;;;;;50.00;37.75;;;;;10.38;50.95;102507.94;5032812;28;45550;-67
2022/03/26 06:36:13;;;;;;;;;49.25;36.75;;;;;10.42;50.95;102504.38;5021624;28;45556;-67
2022/03/26 06:38:41;;;;;;;;;46.25;38.00;;;;;10.49;51.08;102511.28;5024123;28;46093;-67
2022/03/26 06:41:07;;;;;;;;;53.75;40.75;;;;;10.58;51.03;102520.81;5028544;28;45397;-67
2022/03/26 06:43:32;;;;;;;;;52.25;38.75;;;;;10.65;50.95;102515.44;5032191;28;45420;-67
2022/03/26 06:45:58;;;;;;;;;43.00;38.00;;;;;10.75;50.98;102513.53;5034201;28;45422;-67
2022/03/26 06:48:23;;;;;;;;;52.75;39.25;;;;;10.83;50.53;102522.19;5034416;28;46032;-67
2022/03/26 06:50:49;;;;;;;;;51.50;38.25;;;;;10.94;50.48;102516.75;5033021;28;46951;-67
2022/03/26 06:53:14;;;;;;;;;53.00;38.00;;;;;11.04;50.15;102526.22;5032175;28;45452;-67
2022/03/26 06:55:41;;;;;;;;;45.75;35.00;;;;;11.10;49.94;102523.50;5031691;28;45530;-67
2022/03/26 06:58:06;;;;;;;;;52.75;37.00;;;;;11.17;49.85;102519.88;5032874;28;46261;-67
2022/03/26 07:00:32;;;;;;;;;54.00;39.00;;;;;11.24;49.65;102532.03;5035741;28;45395;-67
2022/03/26 07:02:57;;;;;;;;;54.50;39.25;;;;;11.33;49.33;102532.75;5032599;28;45596;-67
2022/03/26 07:05:22;;;;;;;;;45.33;38.00;;;;;11.43;49.24;102534.31;5031547;28;52659;-67
2022/03/26 07:07:48;;;;;;;;;49.75;38.00;;;;;11.53;48.91;102528.00;5031920;28;45345;-67
2022/03/26 07:10:14;;;;;;;;;41.75;31.50;;;;;11.63;49.35;102534.84;5031906;28;45351;-67
2022/03/26 07:12:39;;;;;;;;;43.25;35.50;;;;;11.80;48.43;102534.53;5036447;28;45575;-67
2022/03/26 07:15:05;;;;;;;;;50.33;38.33;;;;;11.93;48.64;102538.69;5032160;28;52582;-67
2022/03/26 07:17:30;;;;;;;;;52.50;38.50;;;;;12.05;48.36;102544.59;5031607;28;46189;-68
2022/03/26 07:19:55;;;;;;;;;52.00;40.25;;;;;12.15;47.90;102548.78;5030955;28;49753;-67
2022/03/26 07:22:21;;;;;;;;;52.75;39.00;;;;;12.26;47.56;102552.06;5031687;28;45318;-67
2022/03/26 07:24:46;;;;;;;;;45.25;36.00;;;;;12.33;47.87;102553.69;5035202;28;45309;-67
2022/03/26 07:27:11;;;;;;;;;51.67;39.67;;;;;12.41;47.74;102551.75;5032702;28;49475;-67
2022/03/26 07:29:40;;;;;;;;;59.33;39.67;;;;;12.54;47.18;102550.59;5031524;28;53416;-68
2022/03/26 07:32:11;;;;;;;;;51.75;37.50;;;;;12.69;46.79;102557.28;5031461;28;45443;-67
2022/03/26 07:34:37;;;;;;;;;53.25;39.75;;;;;12.82;47.14;102562.28;5031946;28;45473;-68
2022/03/26 07:37:02;;;;;;;;;45.75;38.50;;;;;12.94;46.85;102559.34;5035563;28;46041;-67
2022/03/26 07:39:28;;;;;;;;;48.50;36.75;;;;;13.02;46.39;102567.97;5035928;28;45361;-67
2022/03/26 07:41:53;;;;;;;;;55.50;41.00;;;;;13.10;46.37;102571.25;5032058;28;45392;-67
2022/03/26 07:44:19;;;;;;;;;51.75;40.25;;;;;13.25;46.50;102564.78;5031160;28;45493;-67
2022/03/26 07:46:45;;;;;;;;;53.75;40.00;;;;;13.39;45.99;102562.66;5031295;28;45551;-67
2022/03/26 07:49:10;;;;;;;;;52.50;40.50;;;;;13.49;45.01;102565.94;5031449;28;45382;-67
2022/03/26 07:51:35;;;;;;;;;50.50;39.25;;;;;13.63;44.76;102560.31;5035608;28;45486;-68
2022/03/26 07:54:01;;;;;;;;;49.00;38.00;;;;;13.72;45.27;102560.03;5032304;28;45495;-67
2022/03/26 07:56:26;;;;;;;;;54.50;37.00;;;;;13.80;44.58;102563.34;5030863;28;45976;-68
2022/03/26 07:58:52;;;;;;;;;51.00;34.50;;;;;13.94;44.56;102574.44;5030845;28;45495;-67
2022/03/26 08:01:17;;;;;;;;;49.75;35.25;;;;;14.04;44.03;102561.78;5031107;28;45464;-67
2022/03/26 08:03:43;;;;;;;;;50.25;38.00;;;;;14.18;43.87;102564.91;5035387;28;45356;-68
2022/03/26 08:06:08;;;;;;;;;45.50;35.75;;;;;14.38;43.58;102566.13;5032132;28;46042;-68
2022/03/26 08:08:34;;;;;;;;;48.75;36.00;;;;;14.54;43.54;102564.78;5030875;28;45471;-68
2022/03/26 08:10:59;;;;;;;;;44.75;35.75;;;;;14.70;43.42;102567.81;5017262;28;45490;-68
2022/03/26 08:13:24;;;;;;;;;51.75;37.00;;;;;14.85;43.10;102557.63;5030988;28;45374;-67
2022/03/26 08:15:50;;;;;;;;;48.00;37.00;;;;;15.06;42.64;102569.28;5033675;28;46052;-67
2022/03/26 08:18:16;;;;;;;;;51.00;37.00;;;;;15.23;42.67;102568.75;5032700;28;45346;-67
2022/03/26 08:20:45;;;;;;;;;55.50;37.75;;;;;15.31;42.33;102558.75;5034087;28;45521;-67
2022/03/26 08:23:11;;;;;;;;;47.25;35.75;;;;;15.47;42.05;102563.53;5028966;28;45879;-67
2022/03/26 08:28:20;;;;;;;;;48.50;38.50;;;;;15.94;41.46;102563.69;5030675;28;45369;-67
2022/03/26 08:30:46;;;;;;;;;51.25;36.00;;;;;16.17;41.11;102569.00;5033568;28;45462;-67
2022/03/26 08:33:11;;;;;;;;;52.50;38.00;;;;;16.38;40.69;102565.53;5031918;28;45520;-67
2022/03/26 08:35:39;;;;;;;;;50.25;37.00;;;;;16.68;40.35;102567.94;5030604;28;46946;-68
2022/03/26 08:38:05;;;;;;;;;46.50;37.25;;;;;16.98;40.00;102567.69;5030741;28;45981;-67
2022/03/26 08:40:31;;;;;;;;;51.00;40.25;;;;;17.27;39.38;102571.78;5030656;28;45408;-67
2022/03/26 08:43:00;;;;;;;;;54.25;40.75;;;;;17.59;39.23;102573.06;5032613;28;45411;-67
2022/03/26 08:45:26;;;;;;;;;54.50;40.50;;;;;17.93;39.01;102570.69;5033187;28;47234;-67
2022/03/26 08:47:52;;;;;;;;;52.75;39.00;;;;;18.35;38.95;102561.69;5030703;28;45588;-67
2022/03/26 08:50:17;;;;;;;;;53.50;39.00;;;;;18.94;38.37;102570.44;5030783;28;45591;-67
2022/03/26 08:52:42;;;;;;;;;42.75;34.00;;;;;19.77;37.59;102569.81;5012674;28;45397;-67
2022/03/26 08:55:08;;;;;;;;;49.67;37.33;;;;;21.55;37.31;102574.06;5030279;28;58751;-68
2022/03/26 08:57:35;;;;;;;;;48.75;35.75;;;;;23.94;35.07;102562.06;5034061;28;45329;-68
2022/03/26 09:00:01;;;;;;;;;55.75;39.75;;;;;26.41;34.38;102563.09;5031341;28;45386;-67
2022/03/26 09:02:26;;;;;;;;;49.00;35.50;;;;;28.52;30.77;102562.06;5030121;28;45781;-67
2022/03/26 09:04:52;;;;;;;;;49.25;37.50;;;;;30.37;30.10;102568.09;5030030;28;45329;-67
2022/03/26 09:07:18;;;;;;;;;54.00;40.75;;;;;31.77;28.32;102562.94;5030087;28;45471;-68
2022/03/26 09:09:43;;;;;;;;;44.75;36.75;;;;;32.79;25.68;102557.44;5034153;28;45389;-68
2022/03/26 09:12:08;;;;;;;;;46.50;36.50;;;;;33.79;25.24;102566.25;5031707;28;45329;-68
2022/03/26 09:14:34;;;;;;;;;49.50;36.75;;;;;34.66;24.63;102560.78;5029827;28;45393;-68
2022/03/26 09:16:59;;;;;;;;;47.75;36.50;;;;;35.41;22.70;102560.88;5029814;28;45413;-68
2022/03/26 09:19:24;;;;;;;;;46.25;34.25;;;;;36.43;22.11;102555.59;5029944;28;47864;-67
2022/03/26 09:21:50;;;;;;;;;46.50;34.75;;;;;37.44;21.39;102561.03;5033002;28;45519;-68
2022/03/26 09:24:16;;;;;;;;;46.00;35.75;;;;;38.35;20.27;102570.81;5031850;28;46966;-68
2022/03/26 09:26:42;;;;;;;;;43.00;32.75;;;;;38.87;20.10;102558.28;5033800;28;45743;-68
2022/03/26 09:29:08;;;;;;;;;47.50;35.75;;;;;39.35;19.98;102562.72;5029753;28;45388;-68
2022/03/26 09:31:33;;;;;;;;;45.50;36.25;;;;;39.50;19.36;102560.59;5029804;28;45425;-68
2022/03/26 09:33:58;;;;;;;;;46.00;37.00;;;;;39.83;18.26;102565.19;5031576;28;45745;-68
2022/03/26 09:36:24;;;;;;;;;45.25;37.25;;;;;39.99;18.05;102558.34;5032238;28;45424;-68
2022/03/26 09:38:49;;;;;;;;;46.00;36.25;;;;;40.05;17.28;102563.00;5030629;28;45395;-68
2022/03/26 09:41:16;;;;;;;;;48.50;37.00;;;;;40.36;17.24;102567.78;5029508;28;45393;-68
2022/03/26 09:43:42;;;;;;;;;47.00;37.00;;;;;40.71;16.75;102561.84;5032348;28;47127;-68
2022/03/26 09:46:07;;;;;;;;;48.00;36.25;;;;;41.18;17.41;102572.28;5033824;28;45630;-68
2022/03/26 09:48:33;;;;;;;;;45.00;33.25;;;;;41.12;16.13;102564.09;5037415;28;45206;-68
2022/03/26 09:51:01;;;;;;;;;46.25;34.25;;;;;40.61;15.68;102565.91;5033839;28;45359;-67
2022/03/26 09:53:26;;;;;;;;;45.25;35.50;;;;;39.88;15.95;102557.97;5033065;28;45476;-68
2022/03/26 09:55:52;;;;;;;;;49.75;38.00;;;;;39.06;16.87;102555.75;5033168;28;45569;-68
2022/03/26 09:58:17;;;;;;;;;49.75;37.50;;;;;37.80;16.58;102569.06;5032847;28;45428;-68
2022/03/26 10:00:43;;;;;;;;;46.50;36.75;;;;;37.00;17.42;102562.09;5037224;28;45365;-68
2022/03/26 10:03:08;;;;;;;;;45.75;37.75;;;;;36.58;17.57;102556.38;5033896;28;46375;-69
2022/03/26 10:05:35;;;;;;;;;46.75;35.00;;;;;36.15;17.99;102560.06;5032750;28;45394;-68
2022/03/26 10:08:20;;;;;;;;;43.75;36.75;;;;;35.52;18.22;102557.69;5033033;28;45425;-68
2022/03/26 10:10:46;;;;;;;;;46.25;37.25;;;;;34.88;17.89;102559.94;5032957;28;45466;-68
2022/03/26 10:13:32;;;;;;;;;48.25;38.25;;;;;34.66;18.61;102558.88;5033189;28;45354;-68
2022/03/26 10:16:08;;;;;;;;;46.00;37.50;;;;;34.17;18.84;102555.56;5021579;28;45530;-68
2022/03/26 10:18:39;;;;;;;;;49.25;38.25;;;;;33.85;19.11;102560.09;5036821;28;45417;-68
2022/03/26 10:21:10;;;;;;;;;46.75;35.25;;;;;33.52;18.61;102551.16;5033330;28;45357;-68
2022/03/26 10:23:36;;;;;;;;;53.75;39.00;;;;;33.14;19.23;102555.41;5037240;28;46145;-68
2022/03/26 10:26:10;;;;;;;;;43.75;35.00;;;;;33.04;19.56;102549.28;5032005;28;45326;-68
2022/03/26 10:28:37;;;;;;;;;48.50;38.25;;;;;33.06;19.08;102555.44;5033021;28;45523;-68
2022/03/26 10:34:20;;;;;;;;;50.50;37.25;;;;;33.22;19.36;102549.97;5021238;28;45374;-69
2022/03/26 10:36:56;;;;;;;;;51.00;38.50;;;;;33.15;19.56;102554.38;5021139;28;45422;-67
2022/03/26 10:39:30;;;;;;;;;54.25;39.75;;;;;32.86;19.45;102541.25;5017205;28;45355;-68
2022/03/26 10:41:56;;;;;;;;;45.00;36.25;;;;;32.38;19.15;102553.78;5036030;28;45375;-69
2022/03/26 10:44:30;;;;;;;;;49.75;37.75;;;;;31.58;19.77;102551.28;5032074;28;46208;-68
2022/03/26 10:46:58;;;;;;;;;49.75;37.75;;;;;30.96;19.94;102544.13;5032155;28;45721;-68
2022/03/26 10:49:41;;;;;;;;;41.25;32.75;;;;;30.45;19.68;102541.06;5032664;28;45333;-68
2022/03/26 10:52:17;;;;;;;;;45.50;37.00;;;;;29.92;20.10;102543.63;5033167;28;45627;-68
2022/03/26 10:54:43;;;;;;;;;47.75;35.50;;;;;29.46;20.37;102546.16;5020247;28;46641;-68
2022/03/26 10:57:10;;;;;;;;;51.00;40.50;;;;;29.10;21.29;102542.34;5033465;28;45384;-68
2022/03/26 10:59:36;;;;;;;;;54.75;40.75;;;;;28.75;20.69;102538.31;5018660;28;45565;-68
2022/03/26 11:02:01;;;;;;;;;51.00;34.50;;;;;28.46;21.32;102538.28;5032019;28;45342;-68
2022/03/26 11:04:28;;;;;;;;;55.75;40.50;;;;;28.18;21.15;102544.44;5031806;28;45641;-68
2022/03/26 11:06:55;;;;;;;;;46.00;35.75;;;;;27.83;21.23;102527.66;5034639;28;45378;-68
2022/03/26 11:09:21;;;;;;;;;52.00;39.00;;;;;27.60;21.70;102528.78;5034698;28;45499;-68
2022/03/26 11:11:49;;;;;;;;;49.00;37.50;;;;;27.55;22.16;102536.44;5032405;28;45397;-68